ENNA

Banak Airport

Lakselv, Norway
METAR ENNA 181720Z 28013KT 9999 FEW025 BKN040 10/04 Q1001 RMK WIND 1800FT 29021KT
Observed Flight Rules
Sep-18 @ 17:20 UTC (29 minutes ago) Visual Flight Rules
Wind Visibility Clouds
280° at 13 knots 10,000+ meters
  • Few at 2,500' AGL
  • Broken at 4,000' AGL
Temperatures Readings
Current 10°C / 50°F
Dewpoint 4°C / 39°F
Humidity 67%
Altimeter 29.56" Hg
Pressure 1001 hPa
Elevation 8
METAR ENNA 181720Z 28013KT 9999 FEW025 BKN040 10/04 Q1001 RMK WIND 1800FT 29021KT
Observed Flight Rules
Sep-18 @ 17:20 UTC
(29 minutes ago)
VFR
Wind Visibility
280° at 13 knots 10,000+ meters
Clouds
  • Few at 2,500' AGL
  • Broken at 4,000' AGL
Temperature Dewpoint
10°C / 50°F 4°C / 39°F
Humidity Altimeter Pressure
67% 29.56" Hg 1001 hPa